Time;durP1;ratioP1;P1;durP2;ratioP2;P2;SDS_P1;SDS_P2;PMS_P1;PMS_P2;Temp;Humidity;BMP_temperature;BMP_pressure;BME280_temperature;BME280_humidity;BME280_pressure;Samples;Min_cycle;Max_cycle;Signal;HPM_P1;HPM_P2
2021/03/23 00:03:06;;;;;;;11.77;7.87;;;;;;;6.10;52.79;98587.88;8339631;28;20197;-64
2021/03/23 00:07:09;;;;;;;12.87;8.27;;;;;;;6.09;52.72;98599.03;8331496;28;20188;-64
2021/03/23 00:11:14;;;;;;;12.93;7.57;;;;;;;6.06;52.75;98605.06;8331137;28;20220;-64
2021/03/23 00:15:16;;;;;;;11.45;7.82;;;;;;;6.32;52.58;98611.50;8331075;28;20410;-64
2021/03/23 00:19:18;;;;;;;13.23;8.77;;;;;;;6.12;53.12;98611.84;8345418;28;20212;-65
2021/03/23 00:23:21;;;;;;;16.00;8.87;;;;;;;6.04;53.33;98604.25;8363915;28;20200;-64
2021/03/23 00:27:23;;;;;;;13.10;8.07;;;;;;;5.85;53.67;98606.22;8363630;28;20250;-65
2021/03/23 00:31:27;;;;;;;13.63;8.47;;;;;;;5.96;54.13;98608.63;8364225;28;20273;-64
2021/03/23 00:35:31;;;;;;;15.80;8.40;;;;;;;6.00;54.07;98613.72;8364140;28;20188;-64
2021/03/23 00:39:36;;;;;;;11.97;7.03;;;;;;;6.03;54.32;98608.53;8364309;28;20287;-64
2021/03/23 00:43:38;;;;;;;9.87;7.10;;;;;;;6.01;54.76;98612.00;8363634;28;20200;-65
2021/03/23 00:47:40;;;;;;;11.10;7.00;;;;;;;6.09;54.77;98605.00;8363527;28;20207;-65
2021/03/23 00:51:46;;;;;;;9.67;6.43;;;;;;;6.06;55.32;98603.34;8363416;28;20212;-66
2021/03/23 00:55:49;;;;;;;10.17;6.83;;;;;;;6.11;55.31;98611.00;8363223;28;20196;-64
2021/03/23 00:59:51;;;;;;;9.90;6.93;;;;;;;6.19;55.09;98605.72;8363681;28;20235;-64
2021/03/23 01:03:53;;;;;;;15.17;7.43;;;;;;;6.18;55.04;98604.84;8365500;28;20200;-65
2021/03/23 01:07:55;;;;;;;11.90;7.73;;;;;;;6.18;55.13;98602.28;8357358;28;20203;-64
2021/03/23 01:11:58;;;;;;;9.63;7.00;;;;;;;6.29;54.75;98604.69;8352722;28;20220;-65
2021/03/23 01:16:00;;;;;;;10.63;6.90;;;;;;;6.28;55.30;98604.72;8353107;28;20188;-64
2021/03/23 01:20:03;;;;;;;10.40;6.47;;;;;;;6.39;55.16;98605.38;8352639;28;20239;-64
2021/03/23 01:24:07;;;;;;;11.23;6.73;;;;;;;6.34;55.55;98600.31;8352335;28;20184;-64
2021/03/23 01:28:10;;;;;;;10.10;6.70;;;;;;;6.36;55.87;98600.28;8358504;28;20227;-64
2021/03/23 01:32:11;;;;;;;9.57;6.37;;;;;;;6.41;55.93;98604.47;8369323;28;20230;-65
2021/03/23 01:36:19;;;;;;;10.50;6.53;;;;;;;6.42;56.22;98605.34;8368816;28;20187;-64
2021/03/23 01:40:24;;;;;;;8.30;5.90;;;;;;;6.43;56.62;98604.44;8368710;28;20229;-64
2021/03/23 01:44:27;;;;;;;8.20;5.90;;;;;;;6.44;56.75;98606.16;8368890;28;20184;-64
2021/03/23 01:48:31;;;;;;;9.30;6.37;;;;;;;6.42;57.20;98601.03;8361738;28;20208;-64
2021/03/23 01:52:33;;;;;;;9.83;5.63;;;;;;;6.46;57.10;98592.38;8360473;28;20299;-65
2021/03/23 01:56:35;;;;;;;8.87;6.47;;;;;;;6.55;57.00;98600.81;8368837;28;20192;-64
2021/03/23 02:00:38;;;;;;;7.00;5.53;;;;;;;6.60;56.83;98606.72;8368810;28;20242;-64
2021/03/23 02:04:40;;;;;;;10.07;5.93;;;;;;;6.58;56.93;98603.34;8368616;28;20218;-65
2021/03/23 02:08:42;;;;;;;9.10;6.00;;;;;;;6.66;57.01;98601.47;8368591;28;20526;-65
2021/03/23 02:12:44;;;;;;;8.53;5.67;;;;;;;6.61;57.05;98600.72;8368138;28;20235;-65
2021/03/23 02:16:48;;;;;;;7.27;5.37;;;;;;;6.57;57.45;98593.94;8367978;28;20624;-65
2021/03/23 02:21:05;;;;;;;6.93;5.50;;;;;;;6.56;57.98;98597.38;8369170;28;20290;-64
2021/03/23 02:25:11;;;;;;;8.77;5.83;;;;;;;6.68;57.62;98599.69;8368365;28;20191;-64
2021/03/23 02:29:14;;;;;;;7.07;5.13;;;;;;;6.70;57.46;98592.81;8368899;28;20184;-65
2021/03/23 02:33:16;;;;;;;9.07;5.47;;;;;;;6.72;58.08;98597.91;8367601;28;20211;-64
2021/03/23 02:37:19;;;;;;;6.23;4.80;;;;;;;6.79;57.98;98592.63;8366222;28;20206;-64
2021/03/23 02:41:21;;;;;;;7.47;5.10;;;;;;;6.78;58.06;98588.38;8366779;28;20524;-65
2021/03/23 02:45:25;;;;;;;8.33;4.93;;;;;;;6.76;58.32;98590.13;8368024;28;20199;-65
2021/03/23 02:49:26;;;;;;;7.90;5.63;;;;;;;6.76;58.08;98589.25;8367586;28;20215;-64
2021/03/23 02:53:29;;;;;;;6.63;5.30;;;;;;;6.82;58.25;98592.59;8367340;28;20290;-65
2021/03/23 02:57:32;;;;;;;7.77;5.47;;;;;;;6.86;58.05;98588.22;8367935;28;20291;-64
2021/03/23 03:01:34;;;;;;;6.73;5.67;;;;;;;6.82;58.06;98587.44;8367054;28;20262;-64
2021/03/23 03:05:36;;;;;;;8.00;6.07;;;;;;;6.77;58.26;98591.81;8366997;28;20286;-64
2021/03/23 03:09:39;;;;;;;8.10;5.57;;;;;;;6.78;58.11;98585.81;8366756;28;20219;-65
2021/03/23 03:13:42;;;;;;;6.57;5.03;;;;;;;6.85;57.82;98589.97;8366288;28;20215;-64
2021/03/23 03:17:44;;;;;;;7.43;5.50;;;;;;;6.79;57.96;98592.63;8365987;28;20200;-64
2021/03/23 03:21:46;;;;;;;7.40;5.37;;;;;;;6.80;58.17;98596.06;8366424;28;20211;-64
2021/03/23 03:25:50;;;;;;;7.03;5.50;;;;;;;6.80;58.07;98593.50;8366063;28;20908;-65
2021/03/23 03:29:52;;;;;;;7.27;5.77;;;;;;;6.78;58.45;98595.25;8365026;28;20238;-64
2021/03/23 03:33:55;;;;;;;7.30;6.00;;;;;;;6.85;57.98;98602.84;8365711;28;20203;-65
2021/03/23 03:37:58;;;;;;;6.80;5.53;;;;;;;6.83;58.48;98602.00;8365579;28;20216;-64
2021/03/23 03:42:01;;;;;;;8.13;6.50;;;;;;;6.84;57.74;98603.69;8365281;28;20203;-64
2021/03/23 03:46:04;;;;;;;9.73;6.37;;;;;;;6.81;57.66;98583.16;8365827;28;20196;-64
2021/03/23 03:50:07;;;;;;;9.67;6.70;;;;;;;6.85;57.16;98605.41;8364816;28;20231;-64
2021/03/23 03:54:09;;;;;;;8.17;6.40;;;;;;;6.89;57.26;98606.16;8365173;28;20208;-64
2021/03/23 03:58:13;;;;;;;8.97;6.80;;;;;;;6.91;57.40;98612.16;8365465;28;20200;-64
2021/03/23 04:02:15;;;;;;;8.77;6.30;;;;;;;6.86;57.68;98606.25;8365149;28;20550;-64
2021/03/23 04:06:17;;;;;;;8.57;6.30;;;;;;;6.84;57.99;98615.72;8364486;28;20284;-64
2021/03/23 04:10:20;;;;;;;7.17;5.57;;;;;;;6.90;57.78;98618.19;8365049;28;20239;-65
2021/03/23 04:14:23;;;;;;;6.67;5.50;;;;;;;6.90;57.53;98618.19;8365028;28;20231;-64
2021/03/23 04:18:27;;;;;;;6.93;5.87;;;;;;;6.89;57.47;98620.78;8357838;28;20203;-64
2021/03/23 04:22:29;;;;;;;8.03;6.20;;;;;;;6.94;57.74;98611.25;8349278;28;20205;-64
2021/03/23 04:26:31;;;;;;;10.07;7.23;;;;;;;6.84;58.38;98608.84;8344333;28;20678;-64
2021/03/23 04:30:33;;;;;;;8.17;6.50;;;;;;;6.90;58.58;98622.50;8364406;28;20230;-65
2021/03/23 04:34:36;;;;;;;13.00;7.20;;;;;;;6.88;58.91;98617.38;8354680;28;20519;-65
2021/03/23 04:38:39;;;;;;;8.23;7.07;;;;;;;6.91;58.94;98622.47;8331122;28;20546;-64
2021/03/23 04:42:40;;;;;;;11.73;7.30;;;;;;;6.87;59.02;98615.66;8331150;28;20223;-65
2021/03/23 04:46:43;;;;;;;7.93;7.13;;;;;;;6.93;58.98;98612.97;8331165;28;20243;-64
2021/03/23 04:50:45;;;;;;;9.67;7.30;;;;;;;6.90;59.00;98612.19;8333141;28;20224;-64
2021/03/23 04:54:47;;;;;;;7.93;7.00;;;;;;;6.95;58.93;98610.34;8345058;28;20196;-66
2021/03/23 04:58:49;;;;;;;8.23;7.00;;;;;;;6.98;59.00;98618.03;8330944;28;20240;-65
2021/03/23 05:02:52;;;;;;;8.23;7.17;;;;;;;7.06;58.92;98626.44;8331309;28;20612;-65
2021/03/23 05:06:54;;;;;;;7.90;7.10;;;;;;;7.06;59.00;98626.44;8328538;28;20598;-66
2021/03/23 05:10:56;;;;;;;7.90;7.07;;;;;;;6.96;59.29;98633.50;8327311;28;20323;-65
2021/03/23 05:14:58;;;;;;;9.33;7.57;;;;;;;6.96;59.42;98635.25;8338271;28;20200;-65
2021/03/23 05:19:01;;;;;;;8.67;7.57;;;;;;;7.06;59.46;98639.31;8343181;28;20274;-65
2021/03/23 05:23:03;;;;;;;9.97;7.53;;;;;;;7.01;59.46;98639.44;8354410;28;20842;-66
2021/03/23 05:27:07;;;;;;;9.00;8.10;;;;;;;7.04;59.38;98636.81;8333213;28;20236;-65
2021/03/23 05:31:08;;;;;;;9.87;8.40;;;;;;;7.01;59.65;98644.56;8330125;28;20512;-65
2021/03/23 05:35:13;;;;;;;8.70;7.80;;;;;;;7.05;59.78;98645.38;8331024;28;20200;-64
2021/03/23 05:39:23;;;;;;;11.03;8.50;;;;;;;7.15;59.58;98644.31;8330671;28;20240;-64
2021/03/23 05:43:39;;;;;;;9.53;8.53;;;;;;;6.97;60.17;98648.09;8330321;28;20211;-65
2021/03/23 05:47:42;;;;;;;10.47;9.37;;;;;;;7.08;59.83;98655.59;8330586;28;20189;-64
2021/03/23 05:51:48;;;;;;;9.87;8.83;;;;;;;7.14;59.78;98654.63;8343549;28;20220;-64
2021/03/23 05:55:51;;;;;;;9.87;8.70;;;;;;;7.17;59.80;98660.56;8363436;28;20317;-65
2021/03/23 05:59:56;;;;;;;9.73;8.73;;;;;;;7.21;59.53;98667.34;8368938;28;20211;-64
2021/03/23 06:04:04;;;;;;;11.00;8.93;;;;;;;7.27;59.58;98674.13;8367732;28;20196;-64
2021/03/23 06:08:17;;;;;;;11.13;9.50;;;;;;;7.29;59.37;98676.66;8368253;28;20194;-64
2021/03/23 06:12:30;;;;;;;10.93;9.67;;;;;;;7.30;59.28;98683.53;8367711;28;20219;-65
2021/03/23 06:16:37;;;;;;;13.17;10.17;;;;;;;7.37;59.38;98685.13;8367838;28;20188;-64
2021/03/23 06:20:53;;;;;;;11.17;10.03;;;;;;;7.30;59.26;98692.09;8367530;28;20690;-65
2021/03/23 06:25:01;;;;;;;12.50;10.73;;;;;;;7.33;59.31;98698.91;8367077;28;20195;-64
2021/03/23 06:29:11;;;;;;;12.03;10.73;;;;;;;7.42;58.92;98696.16;8366841;28;20223;-64
2021/03/23 06:33:15;;;;;;;11.43;9.77;;;;;;;7.43;58.84;98697.88;8367223;28;20230;-66
2021/03/23 06:37:21;;;;;;;11.27;9.70;;;;;;;7.41;59.25;98707.38;8367686;28;20204;-66
2021/03/23 06:41:26;;;;;;;10.57;9.40;;;;;;;7.50;58.64;98711.47;8367404;28;20241;-65
2021/03/23 06:45:32;;;;;;;10.93;9.47;;;;;;;7.48;58.75;98711.50;8367144;28;20215;-64
2021/03/23 06:49:36;;;;;;;11.00;9.80;;;;;;;7.51;58.69;98708.03;8366708;28;20200;-65
2021/03/23 06:53:38;;;;;;;10.73;9.63;;;;;;;7.55;58.49;98719.97;8357841;28;20224;-66
2021/03/23 06:57:41;;;;;;;10.60;9.50;;;;;;;7.53;58.58;98714.00;8356316;28;20203;-65
2021/03/23 07:01:44;;;;;;;10.77;9.67;;;;;;;7.58;58.30;98712.19;8353584;28;20203;-64
2021/03/23 07:05:47;;;;;;;11.10;10.00;;;;;;;7.64;58.26;98718.06;8363747;28;20202;-64
2021/03/23 07:09:52;;;;;;;11.70;9.80;;;;;;;7.66;58.13;98723.19;8358150;28;20199;-65
2021/03/23 07:13:55;;;;;;;12.43;9.37;;;;;;;7.71;57.82;98733.38;8347734;28;20624;-65
2021/03/23 07:17:59;;;;;;;9.83;8.83;;;;;;;7.73;57.75;98732.50;8346329;28;20219;-64
2021/03/23 07:22:05;;;;;;;12.33;10.00;;;;;;;7.79;57.62;98729.78;8332516;28;20204;-65
2021/03/23 07:26:18;;;;;;;10.50;9.40;;;;;;;7.84;57.70;98729.66;8332724;28;20293;-64
2021/03/23 07:30:27;;;;;;;11.03;9.80;;;;;;;7.88;57.89;98731.34;8338977;28;20619;-64
2021/03/23 07:34:32;;;;;;;11.23;9.40;;;;;;;7.90;57.37;98739.00;8365259;28;20299;-65
2021/03/23 07:38:37;;;;;;;10.87;9.33;;;;;;;7.83;57.28;98735.72;8365251;28;20219;-64
2021/03/23 07:42:43;;;;;;;11.43;9.07;;;;;;;8.08;56.59;98727.47;8364633;28;20188;-64
2021/03/23 07:46:49;;;;;;;7.90;6.77;;;;;;;8.40;63.79;98732.75;8362524;28;20201;-64
2021/03/23 07:50:57;;;;;;;13.07;5.87;;;;;;;11.15;56.68;98736.13;8354891;28;20208;-67
2021/03/23 07:55:00;;;;;;;14.80;6.60;;;;;;;11.67;50.12;98736.88;8331826;28;20208;-66
2021/03/23 07:59:06;;;;;;;10.70;7.80;;;;;;;10.22;49.42;98722.69;8339791;28;20234;-65
2021/03/23 08:03:39;;;;;;;8.80;7.87;;;;;;;9.65;51.25;98729.53;8346438;28;20275;-66
2021/03/23 08:07:45;;;;;;;12.07;7.60;;;;;;;9.33;52.30;98735.63;8345641;28;20188;-65
2021/03/23 08:11:55;;;;;;;12.33;7.50;;;;;;;9.07;52.63;98739.75;8346460;28;20201;-64
2021/03/23 08:16:12;;;;;;;8.43;7.40;;;;;;;8.96;52.16;98739.16;8346897;28;20510;-65
2021/03/23 08:20:28;;;;;;;8.17;7.30;;;;;;;9.06;52.16;98734.59;8347230;28;20216;-66
2021/03/23 08:24:49;;;;;;;8.23;7.07;;;;;;;8.91;52.39;98739.28;8355373;28;20204;-66
2021/03/23 08:29:00;;;;;;;11.20;7.43;;;;;;;8.96;52.58;98739.16;8354126;28;20242;-64
2021/03/23 08:33:13;;;;;;;8.47;7.17;;;;;;;8.94;51.93;98749.53;8330273;28;20212;-65
2021/03/23 08:37:35;;;;;;;7.80;7.00;;;;;;;8.76;52.02;98743.09;8330530;28;20185;-65
2021/03/23 08:41:45;;;;;;;8.47;6.97;;;;;;;8.59;52.07;98740.94;8328544;28;20468;-66
2021/03/23 08:45:49;;;;;;;7.30;6.20;;;;;;;8.76;52.22;98750.00;8337266;28;20187;-66
2021/03/23 08:49:52;;;;;;;10.33;6.43;;;;;;;8.89;51.97;98748.81;8345148;28;20238;-66
2021/03/23 08:53:57;;;;;;;7.97;6.63;;;;;;;8.77;51.73;98755.13;8360296;28;20227;-67
2021/03/23 08:58:01;;;;;;;10.33;6.23;;;;;;;8.96;50.87;98749.50;8352054;28;20196;-66
2021/03/23 09:02:45;;;;;;;7.23;6.00;;;;;;;8.99;50.89;98752.84;8343074;28;20287;-66
2021/03/23 09:06:48;;;;;;;7.70;6.17;;;;;;;9.03;50.75;98763.97;8363196;28;20208;-65
2021/03/23 09:10:54;;;;;;;7.20;6.17;;;;;;;9.05;50.88;98757.03;8347345;28;20224;-66
2021/03/23 09:15:16;;;;;;;9.97;5.97;;;;;;;9.07;50.21;98765.59;8330719;28;20498;-66
2021/03/23 09:19:34;;;;;;;8.63;6.70;;;;;;;9.07;50.50;98767.31;8330491;28;20196;-65
2021/03/23 09:23:57;;;;;;;7.40;6.27;;;;;;;9.25;49.83;98766.81;8330799;28;20229;-65
2021/03/23 09:28:02;;;;;;;10.27;6.60;;;;;;;9.06;50.18;98766.47;8350576;28;20249;-65
2021/03/23 09:32:06;;;;;;;7.33;5.97;;;;;;;9.26;49.75;98760.78;8367940;28;20500;-66
2021/03/23 09:36:38;;;;;;;7.67;5.90;;;;;;;8.83;48.73;98763.59;8343778;28;20204;-66
2021/03/23 09:40:51;;;;;;;6.20;5.57;;;;;;;9.20;48.96;98764.38;8349850;28;20651;-65
2021/03/23 09:45:01;;;;;;;8.20;6.03;;;;;;;9.40;48.11;98760.41;8369667;28;20184;-66
2021/03/23 09:49:21;;;;;;;9.97;6.10;;;;;;;9.30;47.86;98758.97;8352642;28;20514;-66
2021/03/23 09:53:29;;;;;;;7.33;5.83;;;;;;;9.30;48.14;98759.81;8334873;28;20238;-66
2021/03/23 09:57:32;;;;;;;11.93;6.43;;;;;;;9.31;48.00;98763.22;8341290;28;20226;-66
2021/03/23 10:01:55;;;;;;;7.60;6.03;;;;;;;9.41;47.91;98756.94;8365561;28;20318;-65
2021/03/23 10:05:59;;;;;;;8.20;5.87;;;;;;;9.46;47.46;98757.69;8356298;28;20778;-66
2021/03/23 10:10:10;;;;;;;8.03;6.23;;;;;;;9.51;48.33;98760.13;8335793;28;20581;-69
2021/03/23 10:14:21;;;;;;;8.07;5.63;;;;;;;9.61;46.78;98760.72;8335569;28;20197;-69
2021/03/23 10:18:26;;;;;;;10.57;5.53;;;;;;;9.54;46.14;98757.47;8335291;28;20205;-70
2021/03/23 10:22:31;;;;;;;8.33;5.87;;;;;;;9.53;46.81;98759.19;8335735;28;20601;-70
2021/03/23 10:26:37;;;;;;;7.47;5.80;;;;;;;9.64;46.35;98753.72;8335857;28;20587;-70
2021/03/23 10:30:39;;;;;;;7.07;6.37;;;;;;;9.43;46.77;98754.31;8340139;28;20208;-70
2021/03/23 10:35:01;;;;;;;15.23;9.50;;;;;;;9.58;46.90;98759.91;8343381;28;20204;-69
2021/03/23 10:39:03;;;;;;;8.00;7.20;;;;;;;9.69;47.08;98758.75;8345499;28;20701;-69
2021/03/23 10:43:14;;;;;;;7.17;6.30;;;;;;;9.82;45.87;98756.69;8335380;28;20192;-68
2021/03/23 10:47:31;;;;;;;13.63;10.50;;;;;;;9.70;46.54;98758.72;8334525;28;20219;-68
2021/03/23 10:51:40;;;;;;;9.13;7.30;;;;;;;9.37;46.72;98763.94;8334510;28;20575;-68
2021/03/23 10:55:43;;;;;;;10.57;6.67;;;;;;;9.49;46.98;98775.69;8334659;28;20502;-68
2021/03/23 10:59:45;;;;;;;12.27;7.03;;;;;;;9.28;47.10;98771.94;8359979;28;20237;-66
2021/03/23 11:03:48;;;;;;;13.60;6.63;;;;;;;9.58;46.66;98774.59;8349882;28;20201;-67
2021/03/23 11:08:02;;;;;;;10.80;8.07;;;;;;;9.45;47.31;98770.66;8333983;28;20651;-67
2021/03/23 11:12:04;;;;;;;9.60;7.20;;;;;;;9.58;47.00;98764.25;8333241;28;20566;-66
2021/03/23 11:16:11;;;;;;;9.83;7.43;;;;;;;9.59;47.18;98769.38;8344158;28;20197;-66
2021/03/23 11:20:21;;;;;;;10.53;8.27;;;;;;;9.57;46.90;98759.94;8345190;28;20197;-66
2021/03/23 11:24:24;;;;;;;9.60;7.73;;;;;;;9.68;46.92;98763.09;8356522;28;20199;-66
2021/03/23 11:28:27;;;;;;;11.23;8.30;;;;;;;9.93;47.14;98763.22;8366501;28;20705;-65
2021/03/23 11:32:29;;;;;;;10.17;8.73;;;;;;;10.05;46.42;98759.47;8365845;28;20649;-66
2021/03/23 11:36:32;;;;;;;10.70;8.57;;;;;;;10.30;45.89;98756.09;8366012;28;20202;-66
2021/03/23 11:40:35;;;;;;;11.20;9.07;;;;;;;10.14;45.66;98750.56;8365129;28;20298;-66
2021/03/23 11:44:40;;;;;;;12.60;9.73;;;;;;;10.00;46.09;98750.16;8365529;28;20528;-66
2021/03/23 11:48:44;;;;;;;14.13;10.60;;;;;;;9.78;47.08;98751.59;8364161;28;20192;-66
2021/03/23 11:52:47;;;;;;;11.03;9.83;;;;;;;10.06;47.15;98740.44;8352152;28;20231;-66
2021/03/23 11:56:50;;;;;;;14.00;10.43;;;;;;;10.20;46.89;98737.44;8343934;28;20200;-67
2021/03/23 12:00:52;;;;;;;11.53;10.43;;;;;;;9.98;47.41;98738.09;8344482;28;20196;-66
2021/03/23 12:04:55;;;;;;;17.90;11.80;;;;;;;10.34;46.62;98734.47;8330913;28;20251;-68
2021/03/23 12:08:59;;;;;;;13.33;11.50;;;;;;;10.46;46.39;98739.25;8331187;28;20200;-69
2021/03/23 12:13:09;;;;;;;13.70;12.03;;;;;;;10.19;46.49;98738.34;8331058;28;20220;-68
2021/03/23 12:17:12;;;;;;;13.60;12.17;;;;;;;10.20;45.80;98737.44;8330412;28;20247;-68
2021/03/23 12:21:15;;;;;;;13.50;12.10;;;;;;;10.49;46.23;98733.13;8331749;28;20204;-67
2021/03/23 12:25:19;;;;;;;17.20;13.37;;;;;;;10.78;45.69;98741.72;8336115;28;20196;-69
2021/03/23 12:29:22;;;;;;;14.77;12.87;;;;;;;10.42;46.02;98731.63;8349231;28;20193;-68
2021/03/23 12:33:24;;;;;;;14.17;12.60;;;;;;;10.47;46.23;98740.97;8346168;28;20216;-68
2021/03/23 12:37:43;;;;;;;14.77;12.73;;;;;;;10.34;46.50;98737.91;8347233;28;20490;-69
2021/03/23 12:41:45;;;;;;;14.90;13.30;;;;;;;10.44;46.15;98729.84;8346191;28;20197;-69
2021/03/23 12:45:49;;;;;;;14.37;12.40;;;;;;;10.11;46.37;98733.41;8346659;28;20202;-65
2021/03/23 12:49:51;;;;;;;14.93;13.30;;;;;;;10.17;45.90;98732.38;8346336;28;20188;-65
2021/03/23 12:53:53;;;;;;;17.27;14.80;;;;;;;10.31;46.16;98724.19;8345898;28;20211;-66
2021/03/23 12:57:57;;;;;;;19.20;15.10;;;;;;;10.53;46.34;98719.19;8346097;28;20208;-66
2021/03/23 13:01:59;;;;;;;19.07;16.17;;;;;;;10.41;45.84;98711.81;8352355;28;20196;-67
2021/03/23 13:06:02;;;;;;;18.00;16.10;;;;;;;10.23;46.36;98715.78;8353492;28;20533;-66
2021/03/23 13:10:06;;;;;;;19.80;17.37;;;;;;;10.58;45.55;98706.94;8352635;28;20192;-66
2021/03/23 13:14:10;;;;;;;18.40;16.50;;;;;;;10.76;45.46;98711.50;8352428;28;20216;-64
2021/03/23 13:18:14;;;;;;;20.97;18.80;;;;;;;10.74;45.05;98709.88;8349867;28;20180;-65
2021/03/23 13:22:17;;;;;;;21.67;19.30;;;;;;;10.73;45.93;98719.38;8351459;28;20597;-66
2021/03/23 13:26:21;;;;;;;20.73;18.07;;;;;;;10.79;45.19;98715.72;8349253;28;20223;-65
2021/03/23 13:30:29;;;;;;;20.73;17.80;;;;;;;10.81;44.75;98719.13;8354174;28;20203;-69
2021/03/23 13:34:33;;;;;;;18.80;16.90;;;;;;;10.43;45.40;98717.78;8362496;28;20205;-65
2021/03/23 13:38:38;;;;;;;20.13;17.87;;;;;;;10.25;44.32;98721.78;8349625;28;20690;-66
2021/03/23 13:42:40;;;;;;;20.80;18.63;;;;;;;10.05;45.97;98717.19;8347208;28;20192;-66
2021/03/23 13:46:43;;;;;;;22.87;20.27;;;;;;;9.97;46.68;98718.25;8350583;28;20518;-65
2021/03/23 13:50:46;;;;;;;22.47;20.07;;;;;;;10.05;46.50;98718.06;8350140;28;20200;-66
2021/03/23 13:54:48;;;;;;;25.80;20.73;;;;;;;9.90;46.39;98724.53;8350994;28;20510;-66
2021/03/23 13:58:50;;;;;;;23.57;20.90;;;;;;;10.12;46.16;98709.19;8345548;28;20203;-66
2021/03/23 14:02:52;;;;;;;26.73;20.80;;;;;;;10.07;46.91;98713.69;8356309;28;20295;-65
2021/03/23 14:06:56;;;;;;;25.20;22.50;;;;;;;10.11;47.01;98711.81;8351949;28;20216;-66
2021/03/23 14:10:57;;;;;;;24.13;21.80;;;;;;;10.18;46.84;98714.19;8347953;28;20192;-66
2021/03/23 14:15:00;;;;;;;23.00;20.20;;;;;;;9.97;46.34;98709.66;8347525;28;20210;-65
2021/03/23 14:19:02;;;;;;;21.47;19.17;;;;;;;10.21;45.53;98712.41;8334520;28;20209;-65
2021/03/23 14:23:11;;;;;;;22.93;20.53;;;;;;;10.19;45.00;98715.03;8334176;28;20200;-65
2021/03/23 14:27:13;;;;;;;24.03;21.43;;;;;;;10.10;45.60;98713.56;8334876;28;20498;-65
2021/03/23 14:31:16;;;;;;;26.07;21.03;;;;;;;9.93;46.61;98706.31;8344912;28;20330;-65
2021/03/23 14:35:19;;;;;;;22.97;20.13;;;;;;;9.93;46.96;98708.06;8339471;28;20288;-66
2021/03/23 14:39:29;;;;;;;27.83;21.50;;;;;;;10.09;46.95;98711.03;8343377;28;20223;-65
2021/03/23 14:43:31;;;;;;;27.47;22.50;;;;;;;10.03;46.46;98698.28;8363357;28;20212;-67
2021/03/23 14:47:33;;;;;;;24.93;21.93;;;;;;;9.90;46.18;98696.06;8345408;28;20265;-67
2021/03/23 14:51:38;;;;;;;24.43;21.50;;;;;;;10.11;46.31;98693.69;8332435;28;20224;-65
2021/03/23 14:55:41;;;;;;;29.13;22.13;;;;;;;9.91;46.17;98689.16;8334272;28;20302;-65
2021/03/23 14:59:43;;;;;;;24.80;21.17;;;;;;;10.22;46.48;98686.44;8356029;28;20188;-66
2021/03/23 15:03:45;;;;;;;25.57;22.03;;;;;;;9.97;46.71;98682.03;8358069;28;20246;-66
2021/03/23 15:07:47;;;;;;;28.73;23.33;;;;;;;9.96;46.44;98687.28;8365080;28;20275;-67
2021/03/23 15:11:50;;;;;;;25.80;22.93;;;;;;;10.04;46.49;98681.88;8361206;28;20229;-66
2021/03/23 15:15:53;;;;;;;27.90;23.27;;;;;;;10.09;46.74;98685.13;8362728;28;20211;-65
2021/03/23 15:19:55;;;;;;;25.70;22.37;;;;;;;10.16;46.93;98681.47;8344097;28;20255;-65
2021/03/23 15:23:58;;;;;;;26.63;23.83;;;;;;;10.02;47.43;98684.50;8349553;28;20212;-65
2021/03/23 15:28:01;;;;;;;26.93;24.10;;;;;;;9.94;47.72;98679.56;8338223;28;20239;-65
2021/03/23 15:32:05;;;;;;;29.30;24.33;;;;;;;10.02;47.62;98668.97;8331607;28;20255;-65
2021/03/23 15:36:11;;;;;;;27.73;24.23;;;;;;;10.17;47.51;98678.00;8333466;28;20235;-66
2021/03/23 15:40:15;;;;;;;26.20;23.40;;;;;;;10.12;46.87;98682.47;8330238;28;20232;-65
2021/03/23 15:44:18;;;;;;;27.30;24.13;;;;;;;10.08;47.38;98679.13;8332020;28;20271;-64
2021/03/23 15:48:21;;;;;;;27.43;23.27;;;;;;;9.86;47.34;98686.72;8332283;28;20196;-65
2021/03/23 15:52:26;;;;;;;25.50;22.37;;;;;;;10.01;47.54;98680.19;8332541;28;20216;-66
2021/03/23 15:56:30;;;;;;;26.63;21.77;;;;;;;9.85;48.12;98685.00;8332010;28;20208;-70
2021/03/23 16:00:35;;;;;;;28.13;22.13;;;;;;;9.91;47.76;98686.56;8331252;28;20192;-70
2021/03/23 16:04:37;;;;;;;25.60;22.00;;;;;;;9.86;47.25;98685.84;8331697;28;20227;-71
2021/03/23 16:08:40;;;;;;;25.40;20.10;;;;;;;9.89;47.30;98678.00;8331108;28;20207;-70
2021/03/23 16:12:42;;;;;;;23.13;20.50;;;;;;;9.84;47.75;98687.63;8330012;28;20231;-70
2021/03/23 16:16:45;;;;;;;23.40;20.90;;;;;;;9.92;47.79;98691.69;8331684;28;20520;-70
2021/03/23 16:20:47;;;;;;;24.87;21.13;;;;;;;9.76;48.38;98698.22;8330336;28;20242;-69
2021/03/23 16:24:49;;;;;;;25.33;22.00;;;;;;;9.66;47.92;98707.97;8360127;28;20206;-66
2021/03/23 16:28:52;;;;;;;26.23;23.13;;;;;;;9.95;48.46;98701.09;8362577;28;20483;-66
2021/03/23 16:32:55;;;;;;;26.13;21.57;;;;;;;9.76;48.99;98686.13;8344912;28;20223;-65
2021/03/23 16:36:59;;;;;;;25.33;21.70;;;;;;;9.68;49.38;98702.78;8363036;28;20231;-65
2021/03/23 16:41:01;;;;;;;26.10;22.20;;;;;;;9.74;48.97;98695.66;8364034;28;20227;-65
2021/03/23 16:45:05;;;;;;;25.20;22.47;;;;;;;9.81;48.77;98691.16;8363488;28;20200;-67
2021/03/23 16:49:08;;;;;;;25.80;22.20;;;;;;;9.81;48.87;98692.91;8363135;28;20206;-65
2021/03/23 16:53:14;;;;;;;26.77;23.97;;;;;;;10.22;47.79;98691.63;8362378;28;20432;-66
2021/03/23 16:57:18;;;;;;;26.83;22.67;;;;;;;9.85;48.31;98690.19;8359742;28;20620;-65
2021/03/23 17:01:21;;;;;;;27.23;21.67;;;;;;;9.81;47.81;98687.75;8351195;28;20208;-66
2021/03/23 17:05:24;;;;;;;25.07;22.37;;;;;;;9.63;48.24;98694.28;8360578;28;20203;-66
2021/03/23 17:09:25;;;;;;;30.57;21.90;;;;;;;9.67;48.39;98695.88;8363189;28;20195;-65
2021/03/23 17:13:27;;;;;;;29.70;24.37;;;;;;;9.59;48.47;98707.31;8355568;28;20216;-64
2021/03/23 17:17:29;;;;;;;31.17;27.67;;;;;;;9.55;49.02;98704.84;8348963;28;20249;-65
2021/03/23 17:21:32;;;;;;;27.07;24.30;;;;;;;9.58;48.89;98708.19;8348735;28;20205;-66
2021/03/23 17:25:39;;;;;;;28.70;12.10;;;;;;;12.37;60.20;98718.69;8335318;28;20219;-69
2021/03/23 17:29:41;;;;;;;32.97;27.20;;;;;;;11.44;46.47;98722.16;8339456;28;20210;-66
2021/03/23 17:33:43;;;;;;;44.27;36.13;;;;;;;10.82;46.25;98722.56;8332705;28;20216;-65
2021/03/23 17:37:46;;;;;;;54.70;47.73;;;;;;;10.40;47.38;98729.09;8345776;28;20215;-65
2021/03/23 17:42:06;;;;;;;38.70;32.40;;;;;;;10.24;47.79;98728.66;8345048;28;20188;-65
2021/03/23 17:46:08;;;;;;;41.43;34.23;;;;;;;10.13;48.23;98725.59;8342422;28;20544;-67
2021/03/23 17:50:12;;;;;;;42.07;34.57;;;;;;;10.04;49.01;98734.47;8351227;28;20219;-67
2021/03/23 17:54:14;;;;;;;31.63;28.13;;;;;;;9.93;49.05;98737.34;8350901;28;20650;-64
2021/03/23 17:58:16;;;;;;;40.20;35.80;;;;;;;9.83;49.07;98735.94;8333991;28;20628;-65
2021/03/23 18:02:18;;;;;;;34.67;28.37;;;;;;;9.70;49.31;98737.19;8333494;28;20192;-64
2021/03/23 18:06:20;;;;;;;32.87;27.27;;;;;;;9.70;49.63;98747.53;8333634;28;20315;-68
2021/03/23 18:10:25;;;;;;;31.97;26.90;;;;;;;9.71;49.49;98744.03;8333356;28;20188;-64
2021/03/23 18:14:44;;;;;;;31.50;26.97;;;;;;;9.70;49.62;98744.94;8333048;28;20243;-68
2021/03/23 18:18:59;;;;;;;39.67;32.30;;;;;;;9.55;49.75;98738.47;8347634;28;20256;-69
2021/03/23 18:23:01;;;;;;;36.33;28.97;;;;;;;9.61;49.65;98745.19;8348859;28;20200;-69
2021/03/23 18:27:05;;;;;;;34.73;30.97;;;;;;;9.63;49.95;98748.59;8349048;28;20215;-68
2021/03/23 18:31:07;;;;;;;36.60;31.13;;;;;;;9.58;49.86;98752.16;8368565;28;20192;-69
2021/03/23 18:35:10;;;;;;;40.07;33.97;;;;;;;9.51;50.21;98744.63;8367829;28;20259;-69
2021/03/23 18:39:12;;;;;;;40.70;31.73;;;;;;;9.44;50.36;98749.09;8350383;28;20690;-70
2021/03/23 18:43:15;;;;;;;34.90;31.10;;;;;;;9.44;50.35;98750.84;8348756;28;20195;-69
2021/03/23 18:47:17;;;;;;;38.37;32.20;;;;;;;9.47;50.37;98753.34;8348669;28;20199;-69
2021/03/23 18:51:19;;;;;;;39.03;31.13;;;;;;;9.49;50.21;98757.59;8353096;28;20386;-68
2021/03/23 18:55:22;;;;;;;35.40;31.27;;;;;;;9.44;50.29;98756.00;8356153;28;20199;-69
2021/03/23 18:59:25;;;;;;;41.03;33.77;;;;;;;9.51;50.45;98763.56;8350702;28;20188;-69
2021/03/23 19:03:28;;;;;;;28.23;16.73;;;;;;;11.41;63.51;98770.69;8358035;28;20205;-69
2021/03/23 19:07:30;;;;;;;36.33;30.23;;;;;;;11.88;49.64;98776.78;8346301;28;20220;-65
2021/03/23 19:11:34;;;;;;;37.90;33.80;;;;;;;10.58;48.12;98766.50;8341928;28;20229;-66